Virtual LH

Virtual LH. There's no better way to fly
Since 2013.



AIRPORT MAP

METAR AND TAF INFORMATION

METAR FOR LYBE
ADDS - METARS form results

(1215 UTC 23 March 2019)
Data provider http://aviationweather.gov/metar/data/
 
METAR text: LYBE 231200Z 36011KT 330V040 CAVOK 18/03 Q1026 NOSIG
Conditions at: LYBE (BELGRADE/SURCIN , CS) observed 1200 UTC 23 March 2019
Temperature: 18.0°C (64°F)
Dewpoint: 3.0°C (37°F) [RH = 37%]
Pressure (altimeter): 30.30 inches Hg (1026.0 mb)
Winds: from the N (360 degrees) at 13 MPH (11 knots; 5.7 m/s)
Visibility: 6 or more miles (10+ km)
Ceiling: ceiling and visibility are OK
Clouds: unknown
Weather: no significant weather observed at this time

METAR text: LYBE 231130Z 35009KT 310V030 CAVOK 17/04 Q1026 NOSIG
Conditions at: LYBE (BELGRADE/SURCIN , CS) observed 1130 UTC 23 March 2019
Temperature: 17.0°C (63°F)
Dewpoint: 4.0°C (39°F) [RH = 42%]
Pressure (altimeter): 30.30 inches Hg (1026.0 mb)
Winds: from the N (350 degrees) at 10 MPH (9 knots; 4.6 m/s)
Visibility: 6 or more miles (10+ km)
Ceiling: ceiling and visibility are OK
Clouds: unknown
Weather: no significant weather observed at this time

Forecast for: LYBE (BELGRADE/SURCIN , CS)
Text: TAF LYBE 231100Z 2312/2412 34012KT CAVOK TX19/2314Z TN03/2405Z
Forecast period: 1200 to 1500 UTC 23 March 2019
Forecast type: FROM: standard forecast or significant change
Winds: from the NNW (340 degrees) at 14 MPH (12 knots; 6.2 m/s)
Visibility: 6 or more miles 10+ km)
Ceiling: unknown
Clouds: missing
Weather: no significant weather forecast for this period
Text: BECMG 2315/2317 24004KT
Forecast period: 1500 UTC 23 March 2019 to 1200 UTC 24 March 2019
Forecast type: BECOMING: Conditions expected to become as follows by 1700 UTC 23 March 2019
Winds: from the WSW (240 degrees) at 5 MPH (4 knots; 2.1 m/s)
Visibility: 6 or more miles 10+ km)
Ceiling: unknown
Clouds: missing
Weather: no significant weather forecast for this period
Text: TEMPO 2404/2407 3000 BR
Forecast period: 0400 to 0700 UTC 24 March 2019
Forecast type: TEMPORARY: The following changes expected for less than half the time period
Visibility: 1.86 miles (2.99 km)
Ceiling: unknown
Clouds: missing
Weather: BR  (mist)

RUNWAY INFORMATION

Runway 12 Runway length 11155 ft Runway width 148 ft
Runway elevation 318 ft Runway displaced threshold 0 ft Runway heading 122
Runway 30 Runway length 11155 ft Runway width 148 ft
Runway elevation 335 ft Runway displaced threshold 1312 ft Runway heading 302

AIRPORT FREQUENCIES

Type APP Name APP Frequency 119.1 MHZ
Type ATIS Name INFO Frequency 122.925 MHZ
Type TWR Name TWR Frequency 118.1 MHZ

AIRPORT NEAR NAVIGATION AIDS

Type VOR-DME Name Beograd Frequency 112300 KHZ
Type NDB Name Beograd Frequency 316 KHZ
Type NDB Name Beograd Frequency 380 KHZ
Type NDB Name Beograd Frequency 355 KHZ